sensor_id;sensor_type;location;lat;lon;timestamp;P1;durP1;ratioP1;P2;durP2;ratioP2
16662;SDS011;8445;51.270;9.434;2024-03-08T00:01:20;17.03;;;13.60;;
16662;SDS011;8445;51.270;9.434;2024-03-08T00:03:46;15.60;;;12.97;;
16662;SDS011;8445;51.270;9.434;2024-03-08T00:06:12;19.00;;;13.70;;
16662;SDS011;8445;51.270;9.434;2024-03-08T00:08:38;17.73;;;13.37;;
16662;SDS011;8445;51.270;9.434;2024-03-08T00:11:04;14.73;;;12.57;;
16662;SDS011;8445;51.270;9.434;2024-03-08T00:13:30;14.67;;;11.17;;
16662;SDS011;8445;51.270;9.434;2024-03-08T00:15:56;15.00;;;12.10;;
16662;SDS011;8445;51.270;9.434;2024-03-08T00:18:22;15.57;;;11.93;;
16662;SDS011;8445;51.270;9.434;2024-03-08T00:20:48;17.17;;;13.53;;
16662;SDS011;8445;51.270;9.434;2024-03-08T00:23:14;18.87;;;14.07;;
16662;SDS011;8445;51.270;9.434;2024-03-08T00:25:40;13.73;;;12.50;;
16662;SDS011;8445;51.270;9.434;2024-03-08T00:28:06;13.70;;;12.20;;
16662;SDS011;8445;51.270;9.434;2024-03-08T00:30:32;14.97;;;12.73;;
16662;SDS011;8445;51.270;9.434;2024-03-08T00:32:58;18.83;;;13.57;;
16662;SDS011;8445;51.270;9.434;2024-03-08T00:35:24;19.33;;;12.83;;
16662;SDS011;8445;51.270;9.434;2024-03-08T00:37:52;16.50;;;12.60;;
16662;SDS011;8445;51.270;9.434;2024-03-08T00:40:17;18.60;;;12.53;;
16662;SDS011;8445;51.270;9.434;2024-03-08T00:42:43;16.27;;;12.00;;
16662;SDS011;8445;51.270;9.434;2024-03-08T00:45:10;18.67;;;13.10;;
16662;SDS011;8445;51.270;9.434;2024-03-08T00:47:36;15.93;;;13.43;;
16662;SDS011;8445;51.270;9.434;2024-03-08T00:50:02;17.80;;;13.87;;
16662;SDS011;8445;51.270;9.434;2024-03-08T00:52:29;17.17;;;13.17;;
16662;SDS011;8445;51.270;9.434;2024-03-08T00:54:55;22.23;;;13.40;;
16662;SDS011;8445;51.270;9.434;2024-03-08T00:57:21;19.17;;;13.50;;
16662;SDS011;8445;51.270;9.434;2024-03-08T00:59:47;18.60;;;12.90;;
16662;SDS011;8445;51.270;9.434;2024-03-08T01:02:13;15.40;;;13.60;;
16662;SDS011;8445;51.270;9.434;2024-03-08T01:04:39;23.57;;;12.97;;
16662;SDS011;8445;51.270;9.434;2024-03-08T01:07:05;16.60;;;13.80;;
16662;SDS011;8445;51.270;9.434;2024-03-08T01:09:31;15.63;;;12.93;;
16662;SDS011;8445;51.270;9.434;2024-03-08T01:11:57;16.57;;;12.33;;
16662;SDS011;8445;51.270;9.434;2024-03-08T01:14:23;20.33;;;13.60;;
16662;SDS011;8445;51.270;9.434;2024-03-08T01:16:56;18.73;;;13.07;;
16662;SDS011;8445;51.270;9.434;2024-03-08T01:19:22;18.47;;;13.33;;
16662;SDS011;8445;51.270;9.434;2024-03-08T01:21:49;16.20;;;13.53;;
16662;SDS011;8445;51.270;9.434;2024-03-08T01:24:15;17.70;;;14.20;;
16662;SDS011;8445;51.270;9.434;2024-03-08T01:26:40;16.80;;;13.30;;
16662;SDS011;8445;51.270;9.434;2024-03-08T01:29:06;21.40;;;13.60;;
16662;SDS011;8445;51.270;9.434;2024-03-08T01:31:33;19.10;;;13.87;;
16662;SDS011;8445;51.270;9.434;2024-03-08T01:34:01;15.97;;;13.10;;
16662;SDS011;8445;51.270;9.434;2024-03-08T01:36:27;26.37;;;13.60;;
16662;SDS011;8445;51.270;9.434;2024-03-08T01:38:54;16.73;;;15.03;;
16662;SDS011;8445;51.270;9.434;2024-03-08T01:41:19;17.43;;;14.27;;
16662;SDS011;8445;51.270;9.434;2024-03-08T01:43:46;15.67;;;13.67;;
16662;SDS011;8445;51.270;9.434;2024-03-08T01:46:12;23.17;;;16.03;;
16662;SDS011;8445;51.270;9.434;2024-03-08T01:48:43;16.67;;;13.17;;
16662;SDS011;8445;51.270;9.434;2024-03-08T01:51:09;20.03;;;14.63;;
16662;SDS011;8445;51.270;9.434;2024-03-08T01:53:37;15.33;;;13.77;;
16662;SDS011;8445;51.270;9.434;2024-03-08T01:56:03;14.57;;;13.00;;
16662;SDS011;8445;51.270;9.434;2024-03-08T01:58:31;16.53;;;12.57;;
16662;SDS011;8445;51.270;9.434;2024-03-08T02:00:58;18.70;;;14.10;;
16662;SDS011;8445;51.270;9.434;2024-03-08T02:03:25;14.07;;;12.10;;
16662;SDS011;8445;51.270;9.434;2024-03-08T02:05:51;16.80;;;13.23;;
16662;SDS011;8445;51.270;9.434;2024-03-08T02:08:17;17.90;;;13.67;;
16662;SDS011;8445;51.270;9.434;2024-03-08T02:10:47;15.57;;;13.27;;
16662;SDS011;8445;51.270;9.434;2024-03-08T02:13:14;15.63;;;13.50;;
16662;SDS011;8445;51.270;9.434;2024-03-08T02:15:59;17.57;;;13.17;;
16662;SDS011;8445;51.270;9.434;2024-03-08T02:18:30;15.87;;;13.30;;
16662;SDS011;8445;51.270;9.434;2024-03-08T02:21:00;21.53;;;14.87;;
16662;SDS011;8445;51.270;9.434;2024-03-08T02:23:28;21.27;;;14.23;;
16662;SDS011;8445;51.270;9.434;2024-03-08T02:25:56;19.73;;;15.13;;
16662;SDS011;8445;51.270;9.434;2024-03-08T02:28:22;20.63;;;15.77;;
16662;SDS011;8445;51.270;9.434;2024-03-08T02:30:53;20.90;;;13.53;;
16662;SDS011;8445;51.270;9.434;2024-03-08T02:33:22;18.33;;;12.70;;
16662;SDS011;8445;51.270;9.434;2024-03-08T02:35:49;16.20;;;13.37;;
16662;SDS011;8445;51.270;9.434;2024-03-08T02:38:20;13.63;;;12.30;;
16662;SDS011;8445;51.270;9.434;2024-03-08T02:40:50;18.83;;;14.67;;
16662;SDS011;8445;51.270;9.434;2024-03-08T02:43:18;15.90;;;13.70;;
16662;SDS011;8445;51.270;9.434;2024-03-08T02:45:47;18.83;;;13.57;;
16662;SDS011;8445;51.270;9.434;2024-03-08T02:48:14;20.17;;;14.33;;
16662;SDS011;8445;51.270;9.434;2024-03-08T02:50:41;19.80;;;13.17;;
16662;SDS011;8445;51.270;9.434;2024-03-08T02:53:08;23.67;;;15.40;;
16662;SDS011;8445;51.270;9.434;2024-03-08T02:55:35;29.20;;;14.43;;
16662;SDS011;8445;51.270;9.434;2024-03-08T02:58:01;18.20;;;14.37;;
16662;SDS011;8445;51.270;9.434;2024-03-08T03:00:28;14.43;;;12.90;;
16662;SDS011;8445;51.270;9.434;2024-03-08T03:02:58;16.47;;;13.83;;
16662;SDS011;8445;51.270;9.434;2024-03-08T03:05:28;18.17;;;13.97;;
16662;SDS011;8445;51.270;9.434;2024-03-08T03:07:55;18.87;;;14.37;;
16662;SDS011;8445;51.270;9.434;2024-03-08T03:10:23;17.77;;;14.00;;
16662;SDS011;8445;51.270;9.434;2024-03-08T03:12:49;16.57;;;13.37;;
16662;SDS011;8445;51.270;9.434;2024-03-08T03:15:15;17.33;;;13.70;;
16662;SDS011;8445;51.270;9.434;2024-03-08T03:17:49;20.83;;;14.27;;
16662;SDS011;8445;51.270;9.434;2024-03-08T03:20:16;16.20;;;14.47;;
16662;SDS011;8445;51.270;9.434;2024-03-08T03:22:52;16.23;;;13.67;;
16662;SDS011;8445;51.270;9.434;2024-03-08T03:25:18;20.07;;;13.77;;
16662;SDS011;8445;51.270;9.434;2024-03-08T03:27:54;14.67;;;13.30;;
16662;SDS011;8445;51.270;9.434;2024-03-08T03:30:23;20.27;;;13.90;;
16662;SDS011;8445;51.270;9.434;2024-03-08T03:32:51;25.57;;;14.67;;
16662;SDS011;8445;51.270;9.434;2024-03-08T03:35:20;18.67;;;13.53;;
16662;SDS011;8445;51.270;9.434;2024-03-08T03:37:47;23.47;;;14.20;;
16662;SDS011;8445;51.270;9.434;2024-03-08T03:40:29;17.80;;;13.50;;
16662;SDS011;8445;51.270;9.434;2024-03-08T03:42:56;17.73;;;13.83;;
16662;SDS011;8445;51.270;9.434;2024-03-08T03:45:22;19.93;;;14.67;;
16662;SDS011;8445;51.270;9.434;2024-03-08T03:47:51;17.10;;;14.27;;
16662;SDS011;8445;51.270;9.434;2024-03-08T03:50:18;29.43;;;15.60;;
16662;SDS011;8445;51.270;9.434;2024-03-08T03:52:45;21.47;;;15.27;;
16662;SDS011;8445;51.270;9.434;2024-03-08T03:55:12;18.23;;;15.47;;
16662;SDS011;8445;51.270;9.434;2024-03-08T03:57:39;15.37;;;13.57;;
16662;SDS011;8445;51.270;9.434;2024-03-08T04:00:06;17.10;;;14.77;;
16662;SDS011;8445;51.270;9.434;2024-03-08T04:02:38;24.70;;;14.80;;
16662;SDS011;8445;51.270;9.434;2024-03-08T04:05:06;16.90;;;13.53;;
16662;SDS011;8445;51.270;9.434;2024-03-08T04:07:33;19.90;;;13.73;;
16662;SDS011;8445;51.270;9.434;2024-03-08T04:10:03;22.07;;;15.57;;
16662;SDS011;8445;51.270;9.434;2024-03-08T04:12:32;17.40;;;13.63;;
16662;SDS011;8445;51.270;9.434;2024-03-08T04:14:59;24.37;;;15.30;;
16662;SDS011;8445;51.270;9.434;2024-03-08T04:17:25;17.93;;;14.23;;
16662;SDS011;8445;51.270;9.434;2024-03-08T04:19:51;17.90;;;15.17;;
16662;SDS011;8445;51.270;9.434;2024-03-08T04:22:18;20.33;;;15.30;;
16662;SDS011;8445;51.270;9.434;2024-03-08T04:24:44;22.63;;;14.70;;
16662;SDS011;8445;51.270;9.434;2024-03-08T04:27:11;18.03;;;15.30;;
16662;SDS011;8445;51.270;9.434;2024-03-08T04:29:37;20.37;;;14.43;;
16662;SDS011;8445;51.270;9.434;2024-03-08T04:32:03;16.23;;;14.10;;
16662;SDS011;8445;51.270;9.434;2024-03-08T04:34:32;26.60;;;15.27;;
16662;SDS011;8445;51.270;9.434;2024-03-08T04:36:59;15.57;;;13.67;;
16662;SDS011;8445;51.270;9.434;2024-03-08T04:39:27;20.53;;;15.70;;
16662;SDS011;8445;51.270;9.434;2024-03-08T04:41:53;22.20;;;16.23;;
16662;SDS011;8445;51.270;9.434;2024-03-08T04:44:24;17.17;;;15.00;;
16662;SDS011;8445;51.270;9.434;2024-03-08T04:46:50;17.67;;;14.80;;
16662;SDS011;8445;51.270;9.434;2024-03-08T04:49:16;20.77;;;14.50;;
16662;SDS011;8445;51.270;9.434;2024-03-08T04:51:42;14.70;;;13.20;;
16662;SDS011;8445;51.270;9.434;2024-03-08T04:54:10;18.17;;;14.67;;
16662;SDS011;8445;51.270;9.434;2024-03-08T04:56:36;18.93;;;14.27;;
16662;SDS011;8445;51.270;9.434;2024-03-08T04:59:02;20.10;;;14.97;;
16662;SDS011;8445;51.270;9.434;2024-03-08T05:01:28;17.57;;;13.67;;
16662;SDS011;8445;51.270;9.434;2024-03-08T05:03:53;24.47;;;13.40;;
16662;SDS011;8445;51.270;9.434;2024-03-08T05:06:20;29.03;;;15.83;;
16662;SDS011;8445;51.270;9.434;2024-03-08T05:08:46;16.40;;;13.90;;
16662;SDS011;8445;51.270;9.434;2024-03-08T05:11:12;22.50;;;15.07;;
16662;SDS011;8445;51.270;9.434;2024-03-08T05:13:40;21.07;;;15.47;;
16662;SDS011;8445;51.270;9.434;2024-03-08T05:16:06;19.40;;;13.67;;
16662;SDS011;8445;51.270;9.434;2024-03-08T05:18:33;20.23;;;14.83;;
16662;SDS011;8445;51.270;9.434;2024-03-08T05:21:01;17.57;;;14.93;;
16662;SDS011;8445;51.270;9.434;2024-03-08T05:23:29;30.57;;;15.53;;
16662;SDS011;8445;51.270;9.434;2024-03-08T05:25:55;22.17;;;15.23;;
16662;SDS011;8445;51.270;9.434;2024-03-08T05:28:22;18.80;;;14.40;;
16662;SDS011;8445;51.270;9.434;2024-03-08T05:30:48;14.57;;;11.90;;
16662;SDS011;8445;51.270;9.434;2024-03-08T05:33:14;31.47;;;15.70;;
16662;SDS011;8445;51.270;9.434;2024-03-08T05:35:40;21.10;;;13.83;;
16662;SDS011;8445;51.270;9.434;2024-03-08T05:38:06;20.67;;;13.10;;
16662;SDS011;8445;51.270;9.434;2024-03-08T05:40:32;18.50;;;14.63;;
16662;SDS011;8445;51.270;9.434;2024-03-08T05:42:58;20.90;;;14.77;;
16662;SDS011;8445;51.270;9.434;2024-03-08T05:45:25;17.07;;;13.67;;
16662;SDS011;8445;51.270;9.434;2024-03-08T05:47:51;22.37;;;15.10;;
16662;SDS011;8445;51.270;9.434;2024-03-08T05:50:18;15.27;;;12.90;;
16662;SDS011;8445;51.270;9.434;2024-03-08T05:52:44;17.13;;;13.33;;
16662;SDS011;8445;51.270;9.434;2024-03-08T05:55:12;18.77;;;14.10;;
16662;SDS011;8445;51.270;9.434;2024-03-08T05:57:40;19.93;;;13.40;;
16662;SDS011;8445;51.270;9.434;2024-03-08T06:00:07;20.33;;;14.80;;
16662;SDS011;8445;51.270;9.434;2024-03-08T06:02:40;23.50;;;14.80;;
16662;SDS011;8445;51.270;9.434;2024-03-08T06:05:08;24.37;;;13.97;;
16662;SDS011;8445;51.270;9.434;2024-03-08T06:07:36;16.07;;;12.40;;
16662;SDS011;8445;51.270;9.434;2024-03-08T06:10:06;21.63;;;13.30;;
16662;SDS011;8445;51.270;9.434;2024-03-08T06:12:44;17.90;;;13.67;;
16662;SDS011;8445;51.270;9.434;2024-03-08T06:15:10;19.80;;;13.03;;
16662;SDS011;8445;51.270;9.434;2024-03-08T06:17:42;24.73;;;14.27;;
16662;SDS011;8445;51.270;9.434;2024-03-08T06:20:08;16.90;;;12.67;;
16662;SDS011;8445;51.270;9.434;2024-03-08T06:22:38;15.27;;;12.10;;
16662;SDS011;8445;51.270;9.434;2024-03-08T06:25:06;17.43;;;12.43;;
16662;SDS011;8445;51.270;9.434;2024-03-08T06:27:42;18.33;;;13.60;;
16662;SDS011;8445;51.270;9.434;2024-03-08T06:30:09;18.27;;;13.63;;
16662;SDS011;8445;51.270;9.434;2024-03-08T06:32:36;17.33;;;13.00;;
16662;SDS011;8445;51.270;9.434;2024-03-08T06:35:02;20.23;;;14.13;;
16662;SDS011;8445;51.270;9.434;2024-03-08T06:37:32;18.53;;;12.93;;
16662;SDS011;8445;51.270;9.434;2024-03-08T06:39:59;23.40;;;12.53;;
16662;SDS011;8445;51.270;9.434;2024-03-08T06:42:29;19.07;;;12.73;;
16662;SDS011;8445;51.270;9.434;2024-03-08T06:44:59;17.70;;;13.07;;
16662;SDS011;8445;51.270;9.434;2024-03-08T06:47:30;19.10;;;12.60;;
16662;SDS011;8445;51.270;9.434;2024-03-08T06:49:57;23.50;;;12.73;;
16662;SDS011;8445;51.270;9.434;2024-03-08T06:52:23;20.70;;;13.73;;
16662;SDS011;8445;51.270;9.434;2024-03-08T06:54:51;19.67;;;13.10;;
16662;SDS011;8445;51.270;9.434;2024-03-08T06:57:17;24.33;;;13.53;;
16662;SDS011;8445;51.270;9.434;2024-03-08T06:59:47;13.10;;;9.80;;
16662;SDS011;8445;51.270;9.434;2024-03-08T07:02:13;12.13;;;9.60;;
16662;SDS011;8445;51.270;9.434;2024-03-08T07:04:40;21.03;;;12.83;;
16662;SDS011;8445;51.270;9.434;2024-03-08T07:07:06;16.67;;;12.70;;
16662;SDS011;8445;51.270;9.434;2024-03-08T07:09:35;24.00;;;15.50;;
16662;SDS011;8445;51.270;9.434;2024-03-08T07:12:02;24.67;;;15.80;;
16662;SDS011;8445;51.270;9.434;2024-03-08T07:14:28;27.37;;;15.07;;
16662;SDS011;8445;51.270;9.434;2024-03-08T07:16:54;20.60;;;13.80;;
16662;SDS011;8445;51.270;9.434;2024-03-08T07:19:20;25.97;;;15.23;;
16662;SDS011;8445;51.270;9.434;2024-03-08T07:21:46;16.90;;;11.77;;
16662;SDS011;8445;51.270;9.434;2024-03-08T07:24:15;21.47;;;14.20;;
16662;SDS011;8445;51.270;9.434;2024-03-08T07:27:04;18.73;;;13.63;;
16662;SDS011;8445;51.270;9.434;2024-03-08T07:29:33;23.23;;;13.40;;
16662;SDS011;8445;51.270;9.434;2024-03-08T07:32:00;14.67;;;12.80;;
16662;SDS011;8445;51.270;9.434;2024-03-08T07:34:26;17.87;;;13.67;;
16662;SDS011;8445;51.270;9.434;2024-03-08T07:36:52;15.93;;;12.83;;
16662;SDS011;8445;51.270;9.434;2024-03-08T07:39:18;19.27;;;13.80;;
16662;SDS011;8445;51.270;9.434;2024-03-08T07:41:44;18.80;;;15.10;;
16662;SDS011;8445;51.270;9.434;2024-03-08T07:44:10;16.97;;;13.10;;
16662;SDS011;8445;51.270;9.434;2024-03-08T07:46:37;26.50;;;16.53;;
16662;SDS011;8445;51.270;9.434;2024-03-08T07:49:04;25.93;;;16.93;;
16662;SDS011;8445;51.270;9.434;2024-03-08T07:51:30;25.37;;;15.57;;
16662;SDS011;8445;51.270;9.434;2024-03-08T07:53:56;27.67;;;16.70;;
16662;SDS011;8445;51.270;9.434;2024-03-08T07:56:22;28.83;;;16.87;;
16662;SDS011;8445;51.270;9.434;2024-03-08T07:58:48;27.03;;;17.90;;
16662;SDS011;8445;51.270;9.434;2024-03-08T08:01:17;20.77;;;14.60;;
16662;SDS011;8445;51.270;9.434;2024-03-08T08:03:43;30.50;;;16.80;;
16662;SDS011;8445;51.270;9.434;2024-03-08T08:06:11;24.73;;;17.90;;
16662;SDS011;8445;51.270;9.434;2024-03-08T08:08:43;24.23;;;15.97;;
16662;SDS011;8445;51.270;9.434;2024-03-08T08:11:10;25.10;;;16.97;;
16662;SDS011;8445;51.270;9.434;2024-03-08T08:13:42;23.13;;;15.70;;
16662;SDS011;8445;51.270;9.434;2024-03-08T08:16:08;26.27;;;16.30;;
16662;SDS011;8445;51.270;9.434;2024-03-08T08:18:35;29.53;;;16.53;;
16662;SDS011;8445;51.270;9.434;2024-03-08T08:21:02;18.13;;;14.20;;
16662;SDS011;8445;51.270;9.434;2024-03-08T08:23:29;24.83;;;16.77;;
16662;SDS011;8445;51.270;9.434;2024-03-08T08:25:55;17.07;;;14.57;;
16662;SDS011;8445;51.270;9.434;2024-03-08T08:28:21;16.63;;;14.30;;
16662;SDS011;8445;51.270;9.434;2024-03-08T08:30:47;20.87;;;15.53;;
16662;SDS011;8445;51.270;9.434;2024-03-08T08:33:15;21.00;;;15.70;;
16662;SDS011;8445;51.270;9.434;2024-03-08T08:35:41;26.50;;;18.33;;
16662;SDS011;8445;51.270;9.434;2024-03-08T08:38:07;26.50;;;17.93;;
16662;SDS011;8445;51.270;9.434;2024-03-08T08:40:36;25.17;;;15.70;;
16662;SDS011;8445;51.270;9.434;2024-03-08T08:43:03;22.37;;;15.17;;
16662;SDS011;8445;51.270;9.434;2024-03-08T08:45:32;26.87;;;17.03;;
16662;SDS011;8445;51.270;9.434;2024-03-08T08:48:04;23.43;;;16.23;;
16662;SDS011;8445;51.270;9.434;2024-03-08T08:50:32;26.33;;;17.17;;
16662;SDS011;8445;51.270;9.434;2024-03-08T08:53:01;24.07;;;15.20;;
16662;SDS011;8445;51.270;9.434;2024-03-08T08:55:32;23.33;;;16.13;;
16662;SDS011;8445;51.270;9.434;2024-03-08T08:58:01;26.63;;;17.80;;
16662;SDS011;8445;51.270;9.434;2024-03-08T09:00:28;29.70;;;17.53;;
16662;SDS011;8445;51.270;9.434;2024-03-08T09:02:56;25.43;;;17.03;;
16662;SDS011;8445;51.270;9.434;2024-03-08T09:05:23;22.43;;;15.17;;
16662;SDS011;8445;51.270;9.434;2024-03-08T09:07:50;22.87;;;15.23;;
16662;SDS011;8445;51.270;9.434;2024-03-08T09:10:16;23.93;;;16.30;;
16662;SDS011;8445;51.270;9.434;2024-03-08T09:12:44;29.13;;;15.37;;
16662;SDS011;8445;51.270;9.434;2024-03-08T09:15:10;21.67;;;15.10;;
16662;SDS011;8445;51.270;9.434;2024-03-08T09:17:37;24.10;;;15.00;;
16662;SDS011;8445;51.270;9.434;2024-03-08T09:20:06;24.07;;;15.80;;
16662;SDS011;8445;51.270;9.434;2024-03-08T09:22:47;18.73;;;13.90;;
16662;SDS011;8445;51.270;9.434;2024-03-08T09:25:14;20.63;;;14.23;;
16662;SDS011;8445;51.270;9.434;2024-03-08T09:27:51;26.90;;;17.03;;
16662;SDS011;8445;51.270;9.434;2024-03-08T09:30:17;25.33;;;16.73;;
16662;SDS011;8445;51.270;9.434;2024-03-08T09:32:43;21.40;;;16.70;;
16662;SDS011;8445;51.270;9.434;2024-03-08T09:35:09;21.07;;;15.50;;
16662;SDS011;8445;51.270;9.434;2024-03-08T09:37:36;19.63;;;15.77;;
16662;SDS011;8445;51.270;9.434;2024-03-08T09:40:06;21.53;;;16.23;;
16662;SDS011;8445;51.270;9.434;2024-03-08T09:42:41;20.60;;;14.77;;
16662;SDS011;8445;51.270;9.434;2024-03-08T09:45:16;20.30;;;14.50;;
16662;SDS011;8445;51.270;9.434;2024-03-08T09:47:51;21.63;;;15.67;;
16662;SDS011;8445;51.270;9.434;2024-03-08T09:50:20;21.70;;;15.60;;
16662;SDS011;8445;51.270;9.434;2024-03-08T09:52:54;20.67;;;15.10;;
16662;SDS011;8445;51.270;9.434;2024-03-08T09:55:24;20.77;;;14.43;;
16662;SDS011;8445;51.270;9.434;2024-03-08T09:57:57;22.50;;;14.50;;
16662;SDS011;8445;51.270;9.434;2024-03-08T10:00:44;17.37;;;14.23;;
16662;SDS011;8445;51.270;9.434;2024-03-08T10:03:11;23.07;;;15.40;;
16662;SDS011;8445;51.270;9.434;2024-03-08T10:05:39;23.47;;;15.57;;
16662;SDS011;8445;51.270;9.434;2024-03-08T10:08:07;17.90;;;14.50;;
16662;SDS011;8445;51.270;9.434;2024-03-08T10:10:39;16.53;;;13.70;;
16662;SDS011;8445;51.270;9.434;2024-03-08T10:13:06;22.30;;;15.50;;
16662;SDS011;8445;51.270;9.434;2024-03-08T10:15:33;22.00;;;15.13;;
16662;SDS011;8445;51.270;9.434;2024-03-08T10:17:59;18.63;;;13.83;;
16662;SDS011;8445;51.270;9.434;2024-03-08T10:20:24;19.80;;;14.93;;
16662;SDS011;8445;51.270;9.434;2024-03-08T10:22:51;18.87;;;14.73;;
16662;SDS011;8445;51.270;9.434;2024-03-08T10:25:19;14.37;;;12.83;;
16662;SDS011;8445;51.270;9.434;2024-03-08T10:27:45;17.37;;;13.77;;
16662;SDS011;8445;51.270;9.434;2024-03-08T10:30:15;17.07;;;13.97;;
16662;SDS011;8445;51.270;9.434;2024-03-08T10:32:49;17.03;;;13.90;;
16662;SDS011;8445;51.270;9.434;2024-03-08T10:35:17;17.33;;;13.97;;
16662;SDS011;8445;51.270;9.434;2024-03-08T10:37:49;17.20;;;13.37;;
16662;SDS011;8445;51.270;9.434;2024-03-08T10:40:34;16.87;;;12.90;;
16662;SDS011;8445;51.270;9.434;2024-03-08T10:43:05;20.33;;;15.47;;
16662;SDS011;8445;51.270;9.434;2024-03-08T10:45:49;21.20;;;15.17;;
16662;SDS011;8445;51.270;9.434;2024-03-08T10:48:43;27.17;;;15.88;;
16662;SDS011;8445;51.270;9.434;2024-03-08T10:51:14;20.85;;;15.30;;
16662;SDS011;8445;51.270;9.434;2024-03-08T10:53:41;19.35;;;14.85;;
16662;SDS011;8445;51.270;9.434;2024-03-08T10:56:11;19.75;;;16.25;;
16662;SDS011;8445;51.270;9.434;2024-03-08T10:58:39;18.93;;;15.33;;
16662;SDS011;8445;51.270;9.434;2024-03-08T11:01:09;17.05;;;13.85;;
16662;SDS011;8445;51.270;9.434;2024-03-08T11:06:06;21.55;;;15.95;;
16662;SDS011;8445;51.270;9.434;2024-03-08T11:08:37;20.42;;;15.55;;
16662;SDS011;8445;51.270;9.434;2024-03-08T11:11:04;19.98;;;16.05;;
16662;SDS011;8445;51.270;9.434;2024-03-08T11:16:10;20.52;;;15.73;;
16662;SDS011;8445;51.270;9.434;2024-03-08T11:18:58;14.60;;;12.57;;
16662;SDS011;8445;51.270;9.434;2024-03-08T11:21:35;23.70;;;15.02;;
16662;SDS011;8445;51.270;9.434;2024-03-08T11:24:09;18.23;;;14.23;;
16662;SDS011;8445;51.270;9.434;2024-03-08T11:26:38;18.65;;;13.60;;
16662;SDS011;8445;51.270;9.434;2024-03-08T11:34:41;19.65;;;15.20;;
16662;SDS011;8445;51.270;9.434;2024-03-08T11:37:16;20.95;;;14.40;;
16662;SDS011;8445;51.270;9.434;2024-03-08T11:39:47;19.98;;;14.52;;
16662;SDS011;8445;51.270;9.434;2024-03-08T11:42:14;24.10;;;17.00;;
16662;SDS011;8445;51.270;9.434;2024-03-08T11:44:45;19.65;;;14.82;;
16662;SDS011;8445;51.270;9.434;2024-03-08T11:47:12;22.13;;;15.53;;
16662;SDS011;8445;51.270;9.434;2024-03-08T11:49:40;25.05;;;15.13;;
16662;SDS011;8445;51.270;9.434;2024-03-08T11:52:13;21.75;;;15.80;;
16662;SDS011;8445;51.270;9.434;2024-03-08T11:54:41;21.92;;;15.82;;
16662;SDS011;8445;51.270;9.434;2024-03-08T11:57:17;25.27;;;17.00;;
16662;SDS011;8445;51.270;9.434;2024-03-08T11:59:53;22.38;;;16.98;;
16662;SDS011;8445;51.270;9.434;2024-03-08T12:02:22;21.77;;;16.95;;
16662;SDS011;8445;51.270;9.434;2024-03-08T12:04:55;22.25;;;15.88;;
16662;SDS011;8445;51.270;9.434;2024-03-08T12:07:28;23.38;;;17.42;;
16662;SDS011;8445;51.270;9.434;2024-03-08T12:10:14;23.25;;;16.15;;
16662;SDS011;8445;51.270;9.434;2024-03-08T12:12:45;20.08;;;15.82;;
16662;SDS011;8445;51.270;9.434;2024-03-08T12:15:16;23.00;;;16.88;;
16662;SDS011;8445;51.270;9.434;2024-03-08T12:17:43;22.98;;;16.13;;
16662;SDS011;8445;51.270;9.434;2024-03-08T12:20:15;24.50;;;16.73;;
16662;SDS011;8445;51.270;9.434;2024-03-08T12:22:52;23.60;;;15.68;;
16662;SDS011;8445;51.270;9.434;2024-03-08T12:25:29;21.52;;;16.08;;
16662;SDS011;8445;51.270;9.434;2024-03-08T12:28:07;19.85;;;14.48;;
16662;SDS011;8445;51.270;9.434;2024-03-08T12:30:49;24.33;;;16.33;;
16662;SDS011;8445;51.270;9.434;2024-03-08T12:33:19;22.17;;;15.55;;
16662;SDS011;8445;51.270;9.434;2024-03-08T12:35:51;21.60;;;17.40;;
16662;SDS011;8445;51.270;9.434;2024-03-08T12:38:20;22.45;;;17.40;;
16662;SDS011;8445;51.270;9.434;2024-03-08T12:40:58;22.58;;;16.13;;
16662;SDS011;8445;51.270;9.434;2024-03-08T12:43:25;22.80;;;16.42;;
16662;SDS011;8445;51.270;9.434;2024-03-08T12:45:55;18.73;;;16.08;;
16662;SDS011;8445;51.270;9.434;2024-03-08T12:48:21;21.15;;;16.13;;
16662;SDS011;8445;51.270;9.434;2024-03-08T12:50:47;21.67;;;17.27;;
16662;SDS011;8445;51.270;9.434;2024-03-08T12:53:13;20.75;;;15.68;;
16662;SDS011;8445;51.270;9.434;2024-03-08T12:55:39;25.80;;;17.30;;
16662;SDS011;8445;51.270;9.434;2024-03-08T12:58:05;23.02;;;16.95;;
16662;SDS011;8445;51.270;9.434;2024-03-08T13:00:35;22.95;;;17.58;;
16662;SDS011;8445;51.270;9.434;2024-03-08T13:03:04;22.55;;;15.73;;
16662;SDS011;8445;51.270;9.434;2024-03-08T13:05:31;24.65;;;15.82;;
16662;SDS011;8445;51.270;9.434;2024-03-08T13:07:57;25.45;;;14.00;;
16662;SDS011;8445;51.270;9.434;2024-03-08T13:10:23;21.83;;;15.32;;
16662;SDS011;8445;51.270;9.434;2024-03-08T13:12:49;24.33;;;16.63;;
16662;SDS011;8445;51.270;9.434;2024-03-08T13:15:16;23.92;;;16.55;;
16662;SDS011;8445;51.270;9.434;2024-03-08T13:17:46;23.40;;;16.02;;
16662;SDS011;8445;51.270;9.434;2024-03-08T13:20:13;20.80;;;16.35;;
16662;SDS011;8445;51.270;9.434;2024-03-08T13:22:47;27.25;;;16.58;;
16662;SDS011;8445;51.270;9.434;2024-03-08T13:25:17;19.95;;;14.68;;
16662;SDS011;8445;51.270;9.434;2024-03-08T13:27:52;20.65;;;15.88;;
16662;SDS011;8445;51.270;9.434;2024-03-08T13:30:21;24.45;;;16.60;;
16662;SDS011;8445;51.270;9.434;2024-03-08T13:32:51;22.08;;;16.20;;
16662;SDS011;8445;51.270;9.434;2024-03-08T13:35:20;20.10;;;15.68;;
16662;SDS011;8445;51.270;9.434;2024-03-08T13:37:56;23.15;;;14.98;;
16662;SDS011;8445;51.270;9.434;2024-03-08T13:40:28;19.85;;;14.52;;
16662;SDS011;8445;51.270;9.434;2024-03-08T13:42:54;20.10;;;15.15;;
16662;SDS011;8445;51.270;9.434;2024-03-08T13:45:23;19.73;;;15.52;;
16662;SDS011;8445;51.270;9.434;2024-03-08T13:47:49;23.95;;;15.68;;
16662;SDS011;8445;51.270;9.434;2024-03-08T13:50:19;21.27;;;16.02;;
16662;SDS011;8445;51.270;9.434;2024-03-08T13:52:48;20.40;;;14.93;;
16662;SDS011;8445;51.270;9.434;2024-03-08T13:55:19;21.45;;;15.55;;
16662;SDS011;8445;51.270;9.434;2024-03-08T13:57:52;21.00;;;15.27;;
16662;SDS011;8445;51.270;9.434;2024-03-08T14:00:18;22.77;;;16.13;;
16662;SDS011;8445;51.270;9.434;2024-03-08T14:02:50;29.40;;;17.27;;
16662;SDS011;8445;51.270;9.434;2024-03-08T14:05:19;19.00;;;15.48;;
16662;SDS011;8445;51.270;9.434;2024-03-08T14:07:45;21.67;;;15.23;;
16662;SDS011;8445;51.270;9.434;2024-03-08T14:10:14;22.08;;;13.80;;
16662;SDS011;8445;51.270;9.434;2024-03-08T14:12:40;19.50;;;13.73;;
16662;SDS011;8445;51.270;9.434;2024-03-08T14:15:09;19.38;;;13.85;;
16662;SDS011;8445;51.270;9.434;2024-03-08T14:17:37;19.08;;;13.73;;
16662;SDS011;8445;51.270;9.434;2024-03-08T14:20:04;22.73;;;15.88;;
16662;SDS011;8445;51.270;9.434;2024-03-08T14:22:31;23.10;;;14.13;;
16662;SDS011;8445;51.270;9.434;2024-03-08T14:24:57;27.25;;;15.98;;
16662;SDS011;8445;51.270;9.434;2024-03-08T14:27:22;24.00;;;16.35;;
16662;SDS011;8445;51.270;9.434;2024-03-08T14:29:48;20.42;;;13.63;;
16662;SDS011;8445;51.270;9.434;2024-03-08T14:32:15;22.67;;;15.10;;
16662;SDS011;8445;51.270;9.434;2024-03-08T14:34:44;23.38;;;14.75;;
16662;SDS011;8445;51.270;9.434;2024-03-08T14:37:11;19.85;;;14.70;;
16662;SDS011;8445;51.270;9.434;2024-03-08T14:39:38;21.85;;;14.73;;
16662;SDS011;8445;51.270;9.434;2024-03-08T14:42:04;26.70;;;14.93;;
16662;SDS011;8445;51.270;9.434;2024-03-08T14:44:33;24.02;;;15.43;;
16662;SDS011;8445;51.270;9.434;2024-03-08T14:47:00;23.23;;;16.05;;
16662;SDS011;8445;51.270;9.434;2024-03-08T14:49:26;25.80;;;16.30;;
16662;SDS011;8445;51.270;9.434;2024-03-08T14:51:54;19.00;;;12.38;;
16662;SDS011;8445;51.270;9.434;2024-03-08T14:54:23;28.58;;;15.15;;